Peotone Weather

Nearby METAR Reports

 

KIGQ - Lansing, Illinois, USA
Distance from station: NE 19mi, 30km
Updated: Sun, 30-Apr-2017 11:15pm CDT
Light thunderstorm, Rain, Overcast
Light thunderstorm, Rain, Overcast
 Wind from NE
Wind: NE 3 mph , 6 km/h
Temperature: 50°F , 10°C
Dew Point: 50°F , 10°C
Humidity: 100%
Barometer: 29.54 inHg , 1000.3 hPa
Summary: Light thunderstorm, Rain
Clouds: Overcast
Visibility: 3/4 mile , 5 km
Cloud details: Overcast 300 ft
2017/05/01 04:15 KIGQ 010415Z AUTO 05003KT 3/4SM -TSRA OVC003 10/10 A2954 RMK AO2 LTG DSNT ALQS T01000100
KIKK - Kankakee, Illinois, USA
Distance from station: S 19mi, 30km
Updated: Sun, 30-Apr-2017 11:15pm CDT
Light rain, Overcast
Light rain, Overcast
 Wind from S
Wind: S 8 mph , 13 km/h
Temperature: 61°F , 16°C
Dew Point: 61°F , 16°C
Humidity: 100%
Barometer: 29.54 inHg , 1000.3 hPa
Summary: Light rain
Clouds: Overcast
Visibility: 2 1/2 miles , 2 km
Cloud details: Mostly cloudy 200 ft
Mostly cloudy 900 ft
Overcast 5000 ft
2017/05/01 04:15 KIKK 010415Z AUTO 18007KT 2 1/2SM -RA BKN002 BKN009 OVC050 16/16 A2954 RMK AO2 VIS 1V5 LTG DSNT N THRU S P0020 T01620159
 
KSJC - Joliet, Illinois, USA
Distance from station: WNW 24mi, 38km
Updated: Sun, 30-Apr-2017 10:53pm CDT
Clear
Clear
 Wind from NW
Wind: NW 9 mph , 15 km/h
Temperature: 63°F , 17°C
Dew Point: 52°F , 11°C
Humidity: 68%
Barometer: 30.07 inHg , 1018.3 hPa
Clouds: Clear
Visibility: 10 miles , 16 km
2017/05/01 03:53 KSJC 010353Z 31008KT 10SM CLR 17/11 A3007 RMK AO2 SLP180 T01720106
KLOT - Romeoville, Illinois, USA
Distance from station: NW 26mi, 41km
Updated: Sun, 30-Apr-2017 11:15pm CDT
Heavy thunderstorm, Rain, Overcast
Heavy thunderstorm, Rain, Overcast
 Wind from S
Wind: S 3 mph , 6 km/h, Gust: 24 mph , 39 km/h
Temperature: 52°F , 11°C
Dew Point: 52°F , 11°C
Humidity: 100%
Barometer: 29.57 inHg , 1001.4 hPa
Summary: Heavy thunderstorm, Rain
Clouds: Overcast
Visibility: 1 3/4 miles , 5 km
Cloud details: Mostly cloudy 300 ft
Overcast 900 ft
2017/05/01 04:15 KLOT 010415Z AUTO 17003G21KT 1 3/4SM +TSRA BKN003 OVC009 11/11 A2957 RMK AO2 LTG DSNT ALQS P0020 T01110111
 
KMDW - Midway Airport Chicago, Illinois, USA
Distance from station: N 31mi, 50km
Updated: Sun, 30-Apr-2017 11:22pm CDT
Thunderstorm rain, Mist, Overcast
Thunderstorm rain, Mist, Overcast
 Wind from calm
Wind: Calm
Temperature: 48°F , 9°C
Dew Point: 48°F , 9°C
Humidity: 100%
Barometer: 29.53 inHg , 1000 hPa
Summary: Thunderstorm rain, Mist
Clouds: Overcast
Visibility: 3 miles , 5 km
Cloud details: Overcast 200 ft
2017/05/01 04:22 KMDW 010422Z 00000KT 3SM R31C/2200VP6000FT TSRA BR OVC002CB 09/09 A2953 RMK AO2 LTG DSNT ALQDS TSB12 FRQ LTGICCC OHD TS OHD MOV N P0017 T00940094 $
KC09 - Morris, Illinois, USA
Distance from station: W 34mi, 54km
Updated: Sun, 30-Apr-2017 11:15pm CDT
Light rain, Overcast
Light rain, Overcast
 Wind from ESE
Wind: ESE 6 mph , 9 km/h
Temperature: 54°F , 12°C
Dew Point: 52°F , 11°C
Humidity: 94%
Barometer: 29.51 inHg , 999.3 hPa
Summary: Light rain
Clouds: Overcast
Visibility: 10 miles , 16 km
Cloud details: Partly cloudy 2900 ft
Mostly cloudy 5000 ft
Overcast 7500 ft
2017/05/01 04:15 KC09 010415Z AUTO 11005KT 10SM -RA SCT029 BKN050 OVC075 12/11 A2951 RMK AO2 LTG DSNT N THRU SE P0003 T01200110

Metar display script from Saratoga-Weather.org